Terminal Aerodrome Forecast
Issued by NWS

Home | Current Version | Previous Version | Text Only | Print | Product List | Glossary On
Versions: 1 2 3 4 5 6 7 8 9 10 11 12 13 14 15 16 17 18 19 20 21 22
091
FTUS45 KFGZ 210537
TAFPGA
TAF
KPGA 210537Z 2106/2206 21007KT P6SM BKN120
     FM210800 VRB05KT P6SM SCT100 SCT120
      TEMPO 2123/2202 BKN100=

USA.gov is the U.S. government's official web portal to all federal, state and local government web resources and services.